Halfway's Hourly Summary for Tuesday, May 15, 2018
Hour Temp
(f)
RH
(%)
Solar Rad.
(MJ/m2)
Rainfall
(in)
Wind
(mph)
5/15/2018 12:00 AM 69 47 0 0 15.4
5/15/2018 1:00 AM 68 55 0 0 15.38
5/15/2018 2:00 AM 67 64 0 0 12.37
5/15/2018 3:00 AM 66 66 0 0 11.02
5/15/2018 4:00 AM 64 71 0 0 7.99
5/15/2018 5:00 AM 62 77 0 0 9.3
5/15/2018 6:00 AM 64 84 0 0 11.84
5/15/2018 7:00 AM 63 88 0.01 0 11.03
5/15/2018 8:00 AM 62 88 0.27 0 8.25
5/15/2018 9:00 AM 66 72 0.99 0 10.93
5/15/2018 10:00 AM 71 56 1.78 0 6.24
5/15/2018 11:00 AM 75 47 2.56 0 4.36
5/15/2018 12:00 PM 77 45 3.12 0 6.31
5/15/2018 1:00 PM 79 41 3.51 0 8.55
5/15/2018 2:00 PM 79 43 3.58 0 12.01
5/15/2018 3:00 PM 80 39 3.65 0 11.59
5/15/2018 4:00 PM 82 38 3.16 0 11.8
5/15/2018 5:00 PM 83 35 2.67 0 12.31
5/15/2018 6:00 PM 83 35 2.17 0 12.48
5/15/2018 7:00 PM 83 37 1.49 0 15.08
5/15/2018 8:00 PM 76 39 0.42 0 17.23
5/15/2018 9:00 PM 68 48 0.01 0.07 17.79
5/15/2018 10:00 PM 58 68 0 0.07 15.46
5/15/2018 11:00 PM 59 71 0 0 5.1
Data Summary 71 56 29.39 0.14 11.24